Time;durP1;ratioP1;P1;durP2;ratioP2;P2;SDS_P1;SDS_P2;PMS_P1;PMS_P2;Temp;Humidity;BMP_temperature;BMP_pressure;BME280_temperature;BME280_humidity;BME280_pressure;Samples;Min_cycle;Max_cycle;Signal;HPM_P1;HPM_P2
2023/01/11 00:00:18;;;;;;;121.05;113.93;;;9.40;99.90;;;;;;5100504;28;20298;-75
2023/01/11 00:02:44;;;;;;;117.00;110.38;;;9.50;99.90;;;;;;5100098;28;20066;-76
2023/01/11 00:05:11;;;;;;;116.72;110.15;;;9.50;99.90;;;;;;5100239;28;20040;-76
2023/01/11 00:07:37;;;;;;;114.57;108.18;;;9.50;99.90;;;;;;5100449;28;20069;-76
2023/01/11 00:10:04;;;;;;;116.28;109.93;;;9.60;99.90;;;;;;5100413;28;20032;-76
2023/01/11 00:12:30;;;;;;;117.40;110.97;;;9.60;99.90;;;;;;5100410;28;20040;-76
2023/01/11 00:14:55;;;;;;;115.20;109.00;;;9.60;99.90;;;;;;5100280;28;20036;-76
2023/01/11 00:17:22;;;;;;;114.38;108.20;;;9.60;99.90;;;;;;5099724;28;20085;-76
2023/01/11 00:19:47;;;;;;;114.07;107.93;;;9.70;99.90;;;;;;5100217;28;20371;-76
2023/01/11 00:22:13;;;;;;;111.60;105.28;;;9.70;99.90;;;;;;5098802;28;20039;-76
2023/01/11 00:24:38;;;;;;;114.25;107.72;;;9.70;99.90;;;;;;5100123;28;20032;-76
2023/01/11 00:27:04;;;;;;;111.65;105.63;;;9.80;99.90;;;;;;5100042;28;20040;-76
2023/01/11 00:29:30;;;;;;;113.55;107.05;;;9.80;99.90;;;;;;5099734;28;20036;-75
2023/01/11 00:31:56;;;;;;;110.45;104.47;;;9.70;99.90;;;;;;5100013;28;20083;-75
2023/01/11 00:34:21;;;;;;;110.53;104.32;;;9.70;99.90;;;;;;5099566;28;20044;-75
2023/01/11 00:36:47;;;;;;;109.30;103.50;;;9.70;99.90;;;;;;5099889;28;20044;-76
2023/01/11 00:39:13;;;;;;;113.22;107.18;;;9.80;99.90;;;;;;5099878;28;20471;-76
2023/01/11 00:49:58;;;;;;;110.88;104.93;;;9.80;99.90;;;;;;5098301;28;20105;-76
2023/01/11 00:52:24;;;;;;;113.35;107.47;;;9.80;99.90;;;;;;5099565;28;20051;-75
2023/01/11 00:54:49;;;;;;;112.72;106.63;;;9.80;99.90;;;;;;5099570;28;20071;-76
2023/01/11 00:57:15;;;;;;;112.40;106.20;;;9.90;99.90;;;;;;5099565;28;20422;-76
2023/01/11 00:59:41;;;;;;;110.45;104.40;;;9.90;99.90;;;;;;5099477;28;20040;-76
2023/01/11 01:02:08;;;;;;;109.55;103.70;;;9.90;99.90;;;;;;5098391;28;20067;-76
2023/01/11 01:04:33;;;;;;;108.40;102.43;;;9.90;99.90;;;;;;5098722;28;20451;-76
2023/01/11 01:06:59;;;;;;;106.57;100.90;;;9.90;99.90;;;;;;5099006;28;20043;-76
2023/01/11 01:09:25;;;;;;;111.88;105.78;;;9.90;99.90;;;;;;5099012;28;20174;-76
2023/01/11 01:11:50;;;;;;;110.20;104.30;;;9.90;99.90;;;;;;5098945;28;20032;-76
2023/01/11 01:14:27;;;;;;;109.95;103.97;;;9.90;99.90;;;;;;5098257;28;20046;-76
2023/01/11 01:16:58;;;;;;;106.13;100.15;;;9.90;99.90;;;;;;5099225;28;20051;-75
2023/01/11 01:19:26;;;;;;;106.00;100.57;;;10.00;99.90;;;;;;5098897;28;20043;-76
2023/01/11 01:21:54;;;;;;;105.07;99.57;;;10.00;99.90;;;;;;5098753;28;20058;-76
2023/01/11 01:24:20;;;;;;;105.88;100.28;;;10.00;99.90;;;;;;5099029;28;20279;-76
2023/01/11 01:26:45;;;;;;;105.25;99.55;;;10.00;99.90;;;;;;5099038;28;20089;-76
2023/01/11 01:29:13;;;;;;;104.25;98.65;;;10.10;99.90;;;;;;5097651;28;20043;-76
2023/01/11 01:31:39;;;;;;;105.82;100.07;;;10.10;99.90;;;;;;5098907;28;20486;-76
2023/01/11 01:34:05;;;;;;;105.47;99.78;;;10.20;99.90;;;;;;5098490;28;20044;-76
2023/01/11 01:36:31;;;;;;;102.18;96.90;;;10.30;99.90;;;;;;5097534;28;20036;-76
2023/01/11 01:38:59;;;;;;;100.95;95.55;;;10.40;99.90;;;;;;5098809;28;20375;-76
2023/01/11 01:41:25;;;;;;;102.15;96.65;;;10.30;99.90;;;;;;5098641;28;20043;-76
2023/01/11 01:43:53;;;;;;;102.90;97.28;;;10.40;99.90;;;;;;5098367;28;20333;-76
2023/01/11 01:46:21;;;;;;;104.70;98.80;;;10.30;99.90;;;;;;5098672;28;20031;-76
2023/01/11 01:48:55;;;;;;;103.20;97.70;;;10.40;99.90;;;;;;5098581;28;20123;-76
2023/01/11 01:51:31;;;;;;;102.18;96.68;;;10.40;99.90;;;;;;5097217;28;20091;-76
2023/01/11 01:53:59;;;;;;;101.32;95.93;;;10.40;99.90;;;;;;5098557;28;20050;-76
2023/01/11 01:56:32;;;;;;;99.28;93.97;;;10.40;99.90;;;;;;5098521;28;20047;-76
2023/01/11 01:59:11;;;;;;;99.88;94.28;;;10.40;99.90;;;;;;5098471;28;20035;-76
2023/01/11 02:01:47;;;;;;;101.65;95.97;;;10.50;99.90;;;;;;5098109;28;20071;-76
2023/01/11 02:04:24;;;;;;;99.55;94.25;;;10.50;99.90;;;;;;5097685;28;20042;-76
2023/01/11 02:07:13;;;;;;;99.32;94.03;;;10.50;99.90;;;;;;5097264;28;20324;-76
2023/01/11 02:09:57;;;;;;;99.13;93.78;;;10.60;99.90;;;;;;5091283;28;20043;-76
2023/01/11 02:12:30;;;;;;;103.80;98.20;;;10.60;99.90;;;;;;5098114;28;20045;-76
2023/01/11 02:14:59;;;;;;;100.07;94.80;;;10.60;99.90;;;;;;5096755;28;20079;-76
2023/01/11 02:17:25;;;;;;;97.95;92.78;;;10.70;99.90;;;;;;5098123;28;20123;-76
2023/01/11 02:20:01;;;;;;;99.85;94.35;;;10.70;99.90;;;;;;5097035;28;20115;-76
2023/01/11 02:23:07;;;;;;;99.93;94.22;;;10.70;99.90;;;;;;5098011;28;20050;-75
2023/01/11 02:26:00;;;;;;;96.68;91.72;;;10.70;99.90;;;;;;5097997;28;20036;-76
2023/01/11 02:28:40;;;;;;;95.72;90.63;;;10.70;99.90;;;;;;5097941;28;20119;-75
2023/01/11 02:31:28;;;;;;;93.82;89.03;;;10.70;99.90;;;;;;5097892;28;20044;-75
2023/01/11 02:34:15;;;;;;;94.15;89.30;;;10.70;99.90;;;;;;5097427;28;20044;-76
2023/01/11 02:36:43;;;;;;;;;;;10.70;99.90;;;;;;5098336;28;20325;-76
2023/01/11 02:39:27;;;;;;;93.03;88.28;;;10.70;99.90;;;;;;5097683;28;19922;-76
2023/01/11 02:45:03;;;;;;;93.32;88.55;;;10.70;99.90;;;;;;5097638;28;20063;-75
2023/01/11 02:47:50;;;;;;;92.70;87.90;;;10.80;99.90;;;;;;5097241;28;20040;-75
2023/01/11 02:50:38;;;;;;;96.68;91.47;;;10.80;99.90;;;;;;5097587;28;20047;-76
2023/01/11 02:53:27;;;;;;;93.95;89.13;;;10.80;99.90;;;;;;5097504;28;20115;-76
2023/01/11 02:56:05;;;;;;;92.13;87.43;;;10.80;99.90;;;;;;5091703;28;20500;-76
2023/01/11 02:58:35;;;;;;;93.15;88.05;;;10.80;99.90;;;;;;5097132;28;20115;-76
2023/01/11 03:01:01;;;;;;;91.50;86.70;;;10.90;99.90;;;;;;5097141;28;20052;-76
2023/01/11 03:03:26;;;;;;;90.70;85.65;;;10.90;99.90;;;;;;5096699;28;20036;-76
2023/01/11 03:06:07;;;;;;;89.57;84.63;;;11.00;99.90;;;;;;5097163;28;20036;-76
2023/01/11 03:08:39;;;;;;;87.80;82.75;;;11.00;99.90;;;;;;5097063;28;20036;-76
2023/01/11 03:11:13;;;;;;;87.60;82.90;;;11.00;99.90;;;;;;5097036;28;20047;-76
2023/01/11 03:14:13;;;;;;;87.57;82.95;;;11.00;99.90;;;;;;5097167;28;20437;-76
2023/01/11 03:17:04;;;;;;;86.50;81.80;;;11.10;99.90;;;;;;5097062;28;20039;-76
2023/01/11 03:19:41;;;;;;;83.18;78.95;;;11.20;99.90;;;;;;5097127;28;20040;-76
2023/01/11 03:22:25;;;;;;;82.78;78.55;;;11.20;99.90;;;;;;5096669;28;20404;-76
2023/01/11 03:24:57;;;;;;;81.75;77.10;;;11.20;99.90;;;;;;5097084;28;20075;-76
2023/01/11 03:27:48;;;;;;;78.40;74.32;;;11.30;99.90;;;;;;5096076;28;20110;-76
2023/01/11 03:30:30;;;;;;;76.95;73.13;;;11.20;99.90;;;;;;5096669;28;20047;-76
2023/01/11 03:33:04;;;;;;;74.32;70.72;;;11.30;99.90;;;;;;5096595;28;20072;-76
2023/01/11 03:35:40;;;;;;;75.32;71.63;;;11.30;99.90;;;;;;5096924;28;20047;-76
2023/01/11 03:38:09;;;;;;;;;;;11.40;99.90;;;;;;5097464;28;20079;-76
2023/01/11 03:40:43;;;;;;;73.22;69.47;;;11.30;99.90;;;;;;5096486;28;19919;-76
2023/01/11 03:43:12;;;;;;;72.35;68.75;;;11.30;99.90;;;;;;5096857;28;20093;-76
2023/01/11 03:45:52;;;;;;;68.57;65.28;;;11.30;99.90;;;;;;5096840;28;20105;-76
2023/01/11 03:48:36;;;;;;;68.05;64.65;;;11.30;99.90;;;;;;5096762;28;20051;-77
2023/01/11 03:51:06;;;;;;;64.63;61.13;;;11.20;99.90;;;;;;5096410;28;20445;-76
2023/01/11 03:53:34;;;;;;;65.07;61.78;;;11.30;99.90;;;;;;5096738;28;20058;-76
2023/01/11 03:56:03;;;;;;;64.20;60.90;;;11.30;99.90;;;;;;5095701;28;20079;-76
2023/01/11 03:58:28;;;;;;;62.67;59.58;;;11.30;99.90;;;;;;5096665;28;20090;-76
2023/01/11 04:00:55;;;;;;;62.97;59.55;;;11.30;99.90;;;;;;5096611;28;20067;-76
2023/01/11 04:03:21;;;;;;;65.22;61.83;;;11.30;99.90;;;;;;5096235;28;20105;-76
2023/01/11 04:05:52;;;;;;;65.95;62.25;;;11.30;99.90;;;;;;5096567;28;20032;-76
2023/01/11 04:08:18;;;;;;;65.43;61.92;;;11.30;99.90;;;;;;5096612;28;20407;-76
2023/01/11 04:10:44;;;;;;;66.45;62.72;;;11.30;99.90;;;;;;5096578;28;20122;-76
2023/01/11 04:13:10;;;;;;;70.45;65.93;;;11.30;99.90;;;;;;5096222;28;20430;-76
2023/01/11 04:15:36;;;;;;;70.45;66.30;;;11.30;99.90;;;;;;5096513;28;20044;-77
2023/01/11 04:18:04;;;;;;;72.10;67.43;;;11.50;99.90;;;;;;5096505;28;20036;-76
2023/01/11 04:20:34;;;;;;;70.78;65.65;;;11.40;99.90;;;;;;5096089;28;20437;-76
2023/01/11 04:23:00;;;;;;;75.13;70.20;;;11.40;99.90;;;;;;5096581;28;20077;-76
2023/01/11 04:25:26;;;;;;;76.90;71.30;;;11.40;99.90;;;;;;5100001;28;20087;-77
2023/01/11 04:27:52;;;;;;;75.00;69.38;;;11.50;99.90;;;;;;5100228;28;20036;-77
2023/01/11 04:30:18;;;;;;;76.25;70.63;;;11.50;99.90;;;;;;5098862;28;20043;-76
2023/01/11 04:32:44;;;;;;;74.03;68.93;;;11.60;99.90;;;;;;5100154;28;20038;-76
2023/01/11 04:35:09;;;;;;;76.80;70.13;;;11.60;99.90;;;;;;5099700;28;20436;-76
2023/01/11 04:37:35;;;;;;;76.63;70.32;;;11.60;99.90;;;;;;5099083;28;20036;-76
2023/01/11 04:40:00;;;;;;;76.70;70.50;;;11.50;99.90;;;;;;5100016;28;20072;-76
2023/01/11 04:42:26;;;;;;;77.25;71.32;;;11.60;99.90;;;;;;5099914;28;20048;-76
2023/01/11 04:44:52;;;;;;;80.50;73.57;;;11.40;99.90;;;;;;5099963;28;20036;-76
2023/01/11 04:47:20;;;;;;;77.95;72.18;;;11.40;99.90;;;;;;5098886;28;20123;-76
2023/01/11 04:49:46;;;;;;;81.10;73.60;;;11.40;99.90;;;;;;5099627;28;20117;-77
2023/01/11 04:52:14;;;;;;;79.25;72.32;;;11.50;99.90;;;;;;5099849;28;20048;-76
2023/01/11 04:54:40;;;;;;;81.88;75.40;;;11.50;99.90;;;;;;5099757;28;20360;-76
2023/01/11 04:57:09;;;;;;;86.43;78.95;;;11.50;99.90;;;;;;5099674;28;20044;-76
2023/01/11 04:59:35;;;;;;;88.45;80.72;;;11.50;99.90;;;;;;5099679;28;20368;-76
2023/01/11 05:02:00;;;;;;;82.93;75.47;;;11.50;99.90;;;;;;5081392;28;20070;-76
2023/01/11 05:04:26;;;;;;;82.07;76.85;;;11.50;99.90;;;;;;5099129;28;20464;-76
2023/01/11 05:06:52;;;;;;;90.43;84.60;;;11.20;99.90;;;;;;5099525;28;20325;-76
2023/01/11 05:09:18;;;;;;;93.47;87.70;;;10.90;99.90;;;;;;5099453;28;20084;-76
2023/01/11 05:11:44;;;;;;;92.57;86.15;;;10.80;99.90;;;;;;5099389;28;20067;-76
2023/01/11 05:14:10;;;;;;;97.45;91.30;;;10.80;99.90;;;;;;5098068;28;20044;-76
2023/01/11 05:16:36;;;;;;;95.85;88.63;;;10.80;99.90;;;;;;5099368;28;20077;-76
2023/01/11 05:19:03;;;;;;;98.78;91.88;;;10.80;99.90;;;;;;5099331;28;20047;-76
2023/01/11 05:21:34;;;;;;;99.75;92.97;;;10.90;99.90;;;;;;5097830;28;20082;-76
2023/01/11 05:24:02;;;;;;;99.00;92.32;;;10.80;99.90;;;;;;5098901;28;20341;-76
2023/01/11 05:26:34;;;;;;;103.95;96.97;;;11.00;99.90;;;;;;5098092;28;20306;-76
2023/01/11 05:29:02;;;;;;;101.75;94.85;;;10.90;99.90;;;;;;5098761;28;20493;-76
2023/01/11 05:31:29;;;;;;;103.93;97.90;;;10.90;99.90;;;;;;5098974;28;20111;-76
2023/01/11 05:33:57;;;;;;;104.38;97.70;;;10.80;99.90;;;;;;5098199;28;20483;-76
2023/01/11 05:36:24;;;;;;;110.93;104.03;;;10.80;99.90;;;;;;5098039;28;20093;-76
2023/01/11 05:38:51;;;;;;;114.65;107.40;;;10.80;99.90;;;;;;5097814;28;20111;-76
2023/01/11 05:41:19;;;;;;;117.13;109.97;;;10.80;99.90;;;;;;5098642;28;20093;-76
2023/01/11 05:46:32;;;;;;;117.72;109.88;;;10.80;99.90;;;;;;5098517;28;20046;-76
2023/01/11 05:48:58;;;;;;;115.93;107.78;;;10.80;99.90;;;;;;5098562;28;20076;-77
2023/01/11 05:51:25;;;;;;;123.13;113.85;;;10.80;99.90;;;;;;5098045;28;20090;-76
2023/01/11 05:53:51;;;;;;;116.20;108.70;;;10.90;99.90;;;;;;5098390;28;20039;-76
2023/01/11 05:56:18;;;;;;;120.47;111.65;;;11.00;99.90;;;;;;5097084;28;20050;-76
2023/01/11 05:58:47;;;;;;;121.65;113.30;;;10.90;99.90;;;;;;5097278;28;20043;-76
2023/01/11 06:01:13;;;;;;;123.20;113.00;;;11.00;99.90;;;;;;5098297;28;20099;-76
2023/01/11 06:03:39;;;;;;;119.03;109.70;;;10.90;99.90;;;;;;5097566;28;20074;-77
2023/01/11 06:06:05;;;;;;;122.90;113.30;;;10.90;99.90;;;;;;5098235;28;20118;-77
2023/01/11 06:08:31;;;;;;;121.10;111.60;;;10.90;99.90;;;;;;5098196;28;20035;-76
2023/01/11 06:10:57;;;;;;;117.53;108.38;;;10.90;99.90;;;;;;5096843;28;20048;-76
2023/01/11 06:13:27;;;;;;;122.80;113.15;;;10.90;99.90;;;;;;5098127;28;20069;-76
2023/01/11 06:15:53;;;;;;;121.03;111.40;;;10.90;99.90;;;;;;5098025;28;20071;-76
2023/01/11 06:18:20;;;;;;;121.80;112.90;;;10.80;99.90;;;;;;5096650;28;20044;-76
2023/01/11 06:20:50;;;;;;;117.93;109.22;;;10.80;99.90;;;;;;5096545;28;20052;-76
2023/01/11 06:23:16;;;;;;;119.03;110.05;;;10.80;99.90;;;;;;5097837;28;20047;-76
2023/01/11 06:25:42;;;;;;;117.13;108.82;;;10.80;99.90;;;;;;5097847;28;20059;-77
2023/01/11 06:28:08;;;;;;;114.00;106.03;;;10.80;99.90;;;;;;5096451;28;20032;-76
2023/01/11 06:30:34;;;;;;;120.30;111.93;;;10.80;99.90;;;;;;5097799;28;20322;-76
2023/01/11 06:33:04;;;;;;;122.65;112.90;;;10.90;99.90;;;;;;5097693;28;20047;-76
2023/01/11 06:35:40;;;;;;;119.03;111.25;;;10.90;99.90;;;;;;5097486;28;20039;-77
2023/01/11 06:38:08;;;;;;;120.85;112.07;;;10.90;99.90;;;;;;5097861;28;20051;-77
2023/01/11 06:40:35;;;;;;;124.22;114.63;;;11.00;99.90;;;;;;5097512;28;20079;-77
2023/01/11 06:43:01;;;;;;;126.07;116.47;;;10.90;99.90;;;;;;5079579;28;20036;-76
2023/01/11 06:45:26;;;;;;;128.65;118.65;;;10.90;99.90;;;;;;5097198;28;20044;-76
2023/01/11 06:47:52;;;;;;;132.65;121.82;;;10.90;99.90;;;;;;5096580;28;20072;-77
2023/01/11 06:50:19;;;;;;;119.90;111.10;;;10.90;99.90;;;;;;5095941;28;20080;-77
2023/01/11 06:52:53;;;;;;;123.13;113.03;;;10.90;99.90;;;;;;5097414;28;20048;-76
2023/01/11 06:55:19;;;;;;;126.43;117.65;;;10.90;99.90;;;;;;5097307;28;20040;-76
2023/01/11 06:57:44;;;;;;;126.35;116.78;;;10.90;99.90;;;;;;5097325;28;20040;-76
2023/01/11 07:00:11;;;;;;;124.13;115.35;;;10.80;99.90;;;;;;5096938;28;20040;-76
2023/01/11 07:02:36;;;;;;;123.90;114.15;;;10.70;99.90;;;;;;5096137;28;20048;-76
2023/01/11 07:05:02;;;;;;;121.35;111.22;;;10.70;99.90;;;;;;5096820;28;20039;-76
2023/01/11 07:07:28;;;;;;;118.13;110.07;;;10.50;99.90;;;;;;5096843;28;20043;-77
2023/01/11 07:09:54;;;;;;;113.28;105.28;;;10.60;99.90;;;;;;5095799;28;20043;-76
2023/01/11 07:12:20;;;;;;;108.32;101.28;;;10.50;99.90;;;;;;5096093;28;20055;-76
2023/01/11 07:14:45;;;;;;;110.20;101.93;;;10.50;99.90;;;;;;5097043;28;20036;-76
2023/01/11 07:17:11;;;;;;;115.15;107.13;;;10.50;99.90;;;;;;5095696;28;20040;-77
2023/01/11 07:19:37;;;;;;;109.10;101.53;;;10.60;99.90;;;;;;5095661;28;20119;-77
2023/01/11 07:22:02;;;;;;;109.95;101.78;;;10.50;99.90;;;;;;5095881;28;20047;-77
2023/01/11 07:24:28;;;;;;;115.70;107.43;;;10.60;99.90;;;;;;5096863;28;20032;-77
2023/01/11 07:26:55;;;;;;;103.30;96.85;;;10.60;99.90;;;;;;5096962;28;20071;-77
2023/01/11 07:29:21;;;;;;;110.15;102.90;;;10.60;99.90;;;;;;5095806;28;20040;-76
2023/01/11 07:31:47;;;;;;;113.40;104.70;;;10.70;99.90;;;;;;5096822;28;20451;-76
2023/01/11 07:34:13;;;;;;;112.57;105.10;;;10.80;99.90;;;;;;5096127;28;20421;-77
2023/01/11 07:36:39;;;;;;;112.53;104.95;;;10.70;99.90;;;;;;5095454;28;20064;-77
2023/01/11 07:39:06;;;;;;;112.65;104.82;;;10.70;99.90;;;;;;5097057;28;20067;-77
2023/01/11 07:44:16;;;;;;;112.18;105.05;;;10.60;99.90;;;;;;5095927;28;20326;-77
2023/01/11 07:46:41;;;;;;;108.25;100.55;;;10.50;99.90;;;;;;5096350;28;20032;-77
2023/01/11 07:49:07;;;;;;;112.57;105.13;;;10.60;99.90;;;;;;5096669;28;20115;-77
2023/01/11 07:51:33;;;;;;;120.43;110.55;;;10.60;99.90;;;;;;5096196;28;20349;-77
2023/01/11 07:54:01;;;;;;;121.53;112.47;;;10.60;99.90;;;;;;5095313;28;20379;-76
2023/01/11 07:56:27;;;;;;;113.50;105.75;;;10.50;99.90;;;;;;5095566;28;20044;-77
2023/01/11 07:58:53;;;;;;;119.78;111.22;;;10.40;99.90;;;;;;5098525;28;20040;-77
2023/01/11 08:01:19;;;;;;;121.68;113.45;;;10.40;99.90;;;;;;5099244;28;20066;-76
2023/01/11 08:03:45;;;;;;;121.68;113.50;;;10.40;99.90;;;;;;5099986;28;20329;-77
2023/01/11 08:06:10;;;;;;;120.95;113.55;;;10.50;99.90;;;;;;5100521;28;20036;-77
2023/01/11 08:08:36;;;;;;;124.70;116.30;;;10.50;99.90;;;;;;5100473;28;20036;-77
2023/01/11 08:16:30;;;;;;;123.47;114.88;;;10.50;99.90;;;;;;5100097;28;20069;-76
2023/01/11 08:18:56;;;;;;;124.22;115.15;;;10.50;99.90;;;;;;5100261;28;20040;-76
2023/01/11 08:21:22;;;;;;;127.25;117.32;;;10.40;99.90;;;;;;5100152;28;20044;-73
2023/01/11 08:23:47;;;;;;;119.57;111.07;;;10.30;99.90;;;;;;5099267;28;20090;-71
2023/01/11 08:26:16;;;;;;;124.10;115.28;;;10.30;99.90;;;;;;5100199;28;20068;-69
2023/01/11 08:28:45;;;;;;;117.32;109.65;;;10.40;99.90;;;;;;5100126;28;20093;-70
2023/01/11 08:31:11;;;;;;;117.63;109.80;;;10.20;99.90;;;;;;5099819;28;20035;-68
2023/01/11 08:33:37;;;;;;;107.18;100.60;;;10.20;99.90;;;;;;5099673;28;20047;-69
2023/01/11 08:36:07;;;;;;;103.50;96.13;;;10.00;99.90;;;;;;5100086;28;20047;-69
2023/01/11 08:38:33;;;;;;;96.30;89.15;;;9.90;99.90;;;;;;5100303;28;20044;-70
2023/01/11 08:41:01;;;;;;;97.05;90.63;;;9.90;99.90;;;;;;5099928;28;20044;-69
2023/01/11 08:43:30;;;;;;;85.53;79.63;;;10.00;99.90;;;;;;5099680;28;20036;-69
2023/01/11 08:45:56;;;;;;;82.63;76.80;;;9.90;99.90;;;;;;5099928;28;20040;-70
2023/01/11 08:48:22;;;;;;;87.82;82.10;;;9.90;99.90;;;;;;5099860;28;20093;-69
2023/01/11 08:50:48;;;;;;;84.50;78.75;;;10.00;99.90;;;;;;5098320;28;20087;-70
2023/01/11 08:53:14;;;;;;;86.05;81.03;;;9.90;99.90;;;;;;5097802;28;20056;-71
2023/01/11 08:55:43;;;;;;;88.13;82.03;;;9.90;99.90;;;;;;5099452;28;20048;-69
2023/01/11 08:58:09;;;;;;;82.13;76.03;;;10.00;99.90;;;;;;5099738;28;20375;-70
2023/01/11 09:00:35;;;;;;;75.95;71.35;;;10.00;99.90;;;;;;5099265;28;20111;-69
2023/01/11 09:03:01;;;;;;;72.22;67.07;;;9.90;99.90;;;;;;5099249;28;20115;-69
2023/01/11 09:05:27;;;;;;;77.63;72.43;;;9.80;99.90;;;;;;5097964;28;20464;-69
2023/01/11 09:07:55;;;;;;;74.15;68.57;;;9.90;99.90;;;;;;5099525;28;20040;-69
2023/01/11 09:10:25;;;;;;;66.55;61.75;;;10.00;99.90;;;;;;5098522;28;20047;-69
2023/01/11 09:12:51;;;;;;;61.38;56.97;;;9.90;99.90;;;;;;5099392;28;20043;-70
2023/01/11 09:15:17;;;;;;;69.53;64.72;;;9.90;99.90;;;;;;5099348;28;20036;-70
2023/01/11 09:17:43;;;;;;;60.55;56.15;;;10.00;99.90;;;;;;5099332;28;20162;-69
2023/01/11 09:20:10;;;;;;;52.53;48.72;;;10.00;99.90;;;;;;5099260;28;20035;-70
2023/01/11 09:22:36;;;;;;;54.10;49.78;;;10.10;99.90;;;;;;5099137;28;20052;-69
2023/01/11 09:25:02;;;;;;;53.53;49.63;;;10.00;99.90;;;;;;5099164;28;20081;-70
2023/01/11 09:27:28;;;;;;;52.13;48.35;;;10.10;99.90;;;;;;5098815;28;20044;-71
2023/01/11 09:29:54;;;;;;;56.25;52.45;;;10.00;99.90;;;;;;5099082;28;20046;-70
2023/01/11 09:32:20;;;;;;;50.22;45.85;;;10.00;99.90;;;;;;5099047;28;20115;-70
2023/01/11 09:34:48;;;;;;;51.03;46.80;;;9.90;99.90;;;;;;5098579;28;20425;-72
2023/01/11 09:37:14;;;;;;;58.22;53.90;;;9.90;99.90;;;;;;5098974;28;20124;-70
2023/01/11 09:39:40;;;;;;;60.17;55.15;;;10.00;99.90;;;;;;5098911;28;20105;-70
2023/01/11 09:42:28;;;;;;;62.38;58.15;;;10.00;99.90;;;;;;5098748;28;20051;-70
2023/01/11 09:44:57;;;;;;;65.90;61.05;;;10.00;99.90;;;;;;5098842;28;20040;-69
2023/01/11 09:47:31;;;;;;;63.33;58.78;;;9.90;99.90;;;;;;5097678;28;20118;-70
2023/01/11 09:50:02;;;;;;;64.45;59.53;;;9.80;99.90;;;;;;5098487;28;20132;-70
2023/01/11 09:52:39;;;;;;;70.65;66.20;;;9.90;99.90;;;;;;5099021;28;20048;-70
2023/01/11 09:55:13;;;;;;;78.82;73.97;;;9.90;99.90;;;;;;5098339;28;20039;-69
2023/01/11 09:58:14;;;;;;;88.35;82.65;;;9.90;99.90;;;;;;5098592;28;20044;-69
2023/01/11 10:01:26;;;;;;;90.03;84.60;;;10.10;99.90;;;;;;5098108;28;20068;-71
2023/01/11 10:04:07;;;;;;;90.32;85.03;;;10.20;99.90;;;;;;5087709;28;20055;-81
2023/01/11 10:07:11;;;;;;;73.78;69.28;;;10.10;99.90;;;;;;5080944;28;20127;-80
2023/01/11 10:10:01;;;;;;;53.58;49.78;;;10.00;99.90;;;;;;5096924;28;20491;-75
2023/01/11 10:12:35;;;;;;;44.05;40.38;;;9.80;99.90;;;;;;5096965;28;20044;-76
2023/01/11 10:15:31;;;;;;;38.10;35.17;;;9.70;99.90;;;;;;5096959;28;20052;-75
2023/01/11 10:18:16;;;;;;;39.42;36.70;;;9.80;99.90;;;;;;5083966;28;20084;-77
2023/01/11 10:20:50;;;;;;;39.42;36.13;;;9.80;99.90;;;;;;5098046;28;20043;-76
2023/01/11 10:23:27;;;;;;;41.40;37.38;;;9.90;99.90;;;;;;5096793;28;20424;-76
2023/01/11 10:25:57;;;;;;;36.53;33.75;;;9.90;99.90;;;;;;5098038;28;20049;-69
2023/01/11 10:28:41;;;;;;;40.50;37.63;;;10.00;99.90;;;;;;5096666;28;20467;-69
2023/01/11 10:31:48;;;;;;;39.95;36.63;;;10.20;99.90;;;;;;5097923;28;20040;-72
2023/01/11 10:41:01;;;;;;;37.63;34.78;;;10.50;99.90;;;;;;5097785;28;20062;-72
2023/01/11 10:43:20;;;;;;;35.70;32.70;;;10.60;99.90;;;;;;5095232;28;20051;-69
2023/01/11 10:45:53;;;;;;;41.08;37.70;;;10.70;99.90;;;;;;5097639;28;20063;-70
2023/01/11 10:48:39;;;;;;;42.85;39.53;;;11.00;99.90;;;;;;5097643;28;20047;-70
2023/01/11 10:51:28;;;;;;;;;;;11.00;99.90;;;;;;5097744;28;20063;-74
2023/01/11 10:54:09;;;;;;;40.13;37.22;;;10.80;99.90;;;;;;5095097;28;19922;-71
2023/01/11 10:56:46;;;;;;;39.20;36.42;;;10.80;99.90;;;;;;5076968;28;20044;-72
2023/01/11 10:59:33;;;;;;;35.08;31.80;;;10.90;99.90;;;;;;5076858;28;20041;-72
2023/01/11 11:02:21;;;;;;;44.30;40.67;;;10.70;99.90;;;;;;5075674;28;20053;-71
2023/01/11 11:05:08;;;;;;;42.63;38.42;;;10.80;99.90;;;;;;5076359;28;20123;-71
2023/01/11 11:07:53;;;;;;;40.78;37.42;;;10.80;99.90;;;;;;5077011;28;20047;-71
2023/01/11 11:10:27;;;;;;;42.10;38.28;;;10.60;99.90;;;;;;5077056;28;20427;-70
2023/01/11 11:12:59;;;;;;;37.63;34.10;;;10.50;99.90;;;;;;5077006;28;20056;-71
2023/01/11 11:15:33;;;;;;;39.42;35.50;;;10.50;99.90;;;;;;5076945;28;20047;-71
2023/01/11 11:17:59;;;;;;;34.67;31.27;;;10.50;99.90;;;;;;5076805;28;20041;-71
2023/01/11 11:20:30;;;;;;;32.65;29.33;;;10.50;99.90;;;;;;5076869;28;20039;-71
2023/01/11 11:22:56;;;;;;;36.58;33.00;;;10.50;99.90;;;;;;5076906;28;20047;-70
2023/01/11 11:25:32;;;;;;;40.42;36.63;;;10.50;99.90;;;;;;5076850;28;20040;-71
2023/01/11 11:28:21;;;;;;;;;;;10.50;99.90;;;;;;5077300;28;20120;-71
2023/01/11 11:30:48;;;;;;;34.60;31.05;;;10.50;99.90;;;;;;5068238;28;20331;-71
2023/01/11 11:33:19;;;;;;;31.65;27.95;;;10.50;99.90;;;;;;5076262;28;20080;-71
2023/01/11 11:36:03;;;;;;;32.38;29.23;;;10.50;99.90;;;;;;5076424;28;20051;-72
2023/01/11 11:38:33;;;;;;;36.83;24.42;;;10.40;99.90;;;;;;5076694;28;20077;-70
2023/01/11 11:41:11;;;;;;;35.60;32.22;;;10.30;99.90;;;;;;5076567;28;20045;-70
2023/01/11 11:43:42;;;;;;;32.13;22.58;;;10.40;99.90;;;;;;5076672;28;20341;-70
2023/01/11 11:46:13;;;;;;;33.83;26.15;;;10.30;99.90;;;;;;5076663;28;20052;-71
2023/01/11 11:48:40;;;;;;;27.33;18.63;;;10.50;99.90;;;;;;5076560;28;20044;-67
2023/01/11 11:51:19;;;;;;;32.10;19.65;;;10.50;99.90;;;;;;5076107;28;20544;-69
2023/01/11 11:53:53;;;;;;;26.60;20.65;;;10.40;99.90;;;;;;5076569;28;20055;-69
2023/01/11 11:56:31;;;;;;;25.65;15.65;;;10.50;99.90;;;;;;5076556;28;20044;-69
2023/01/11 11:58:58;;;;;;;37.70;18.60;;;10.30;99.90;;;;;;5076504;28;20123;-69
2023/01/11 12:01:36;;;;;;;25.35;17.30;;;10.30;99.90;;;;;;5076414;28;20129;-69
2023/01/11 12:04:14;;;;;;;26.10;19.52;;;10.40;99.90;;;;;;5075718;28;20047;-68
2023/01/11 12:06:40;;;;;;;25.90;15.07;;;10.40;99.90;;;;;;5075079;28;20052;-68
2023/01/11 12:09:29;;;;;;;28.98;19.10;;;10.40;99.90;;;;;;5076376;28;20044;-68
2023/01/11 12:11:55;;;;;;;33.90;18.27;;;10.40;99.90;;;;;;5076394;28;20052;-68
2023/01/11 12:14:27;;;;;;;30.88;21.90;;;10.50;99.90;;;;;;5076402;28;20047;-68
2023/01/11 12:16:53;;;;;;;34.05;17.58;;;10.50;99.90;;;;;;5076400;28;20328;-68
2023/01/11 12:19:44;;;;;;;24.45;12.88;;;10.50;99.90;;;;;;5076339;28;20036;-68
2023/01/11 12:22:25;;;;;;;30.58;11.73;;;10.30;99.90;;;;;;5075970;28;20048;-68
2023/01/11 12:25:13;;;;;;;26.60;13.88;;;10.30;99.90;;;;;;5109107;28;20040;-68
2023/01/11 12:27:53;;;;;;;25.63;12.77;;;10.40;99.90;;;;;;5075969;28;20036;-68
2023/01/11 12:30:43;;;;;;;30.92;14.23;;;10.70;99.90;;;;;;5076237;28;20041;-68
2023/01/11 12:33:09;;;;;;;24.02;12.15;;;10.70;99.90;;;;;;5070541;28;20345;-68
2023/01/11 12:36:03;;;;;;;28.40;15.23;;;10.60;99.90;;;;;;5075451;28;20051;-68
2023/01/11 12:38:37;;;;;;;25.90;14.77;;;10.60;99.90;;;;;;5059066;28;20453;-69
2023/01/11 12:41:43;;;;;;;29.10;17.20;;;10.70;99.90;;;;;;5083064;28;20059;-68
2023/01/11 12:44:19;;;;;;;31.17;13.50;;;10.70;99.90;;;;;;5075583;28;20417;-71
2023/01/11 12:47:05;;;;;;;;;;;10.70;99.90;;;;;;5079118;28;20423;-70
2023/01/11 12:50:08;;;;;;;32.15;14.82;;;10.70;99.90;;;;;;5079461;28;20309;-68
2023/01/11 12:52:40;;;;;;;22.60;12.45;;;10.70;99.90;;;;;;5080532;28;20052;-69
2023/01/11 12:55:33;;;;;;;31.35;15.27;;;10.60;99.90;;;;;;5099318;28;20043;-67
2023/01/11 12:58:36;;;;;;;26.13;10.30;;;10.70;99.90;;;;;;5094123;28;20432;-69
2023/01/11 13:01:23;;;;;;;20.00;12.75;;;11.10;99.90;;;;;;5078204;28;20037;-68
2023/01/11 13:03:52;;;;;;;29.08;14.43;;;10.90;99.90;;;;;;5078592;28;20364;-68
2023/01/11 13:06:36;;;;;;;25.67;11.95;;;10.70;99.90;;;;;;5079587;28;20353;-68
2023/01/11 13:09:16;;;;;;;27.48;12.80;;;10.60;99.90;;;;;;5088942;28;20460;-68
2023/01/11 13:12:03;;;;;;;31.10;13.55;;;10.60;99.90;;;;;;5098922;28;20047;-71
2023/01/11 13:14:51;;;;;;;27.63;14.98;;;10.70;99.90;;;;;;5080864;28;20130;-71